Time;durP1;ratioP1;P1;durP2;ratioP2;P2;SDS_P1;SDS_P2;PMS_P1;PMS_P2;Temp;Humidity;BMP_temperature;BMP_pressure;BME280_temperature;BME280_humidity;BME280_pressure;Samples;Min_cycle;Max_cycle;Signal;HPM_P1;HPM_P2
2022/12/04 00:02:11;;;;;;;;;;;;;;;;;;;;;
2022/12/04 00:04:39;;;;;;;82.10;43.53;;;3.80;99.90;;;;;;5025751;28;20473;-85
2022/12/04 00:07:06;;;;;;;74.38;39.90;;;3.30;99.90;;;;;;5025106;28;20229;-85
2022/12/04 00:09:35;;;;;;;71.30;40.35;;;4.00;99.90;;;;;;5024022;28;20208;-82
2022/12/04 00:12:03;;;;;;;77.63;39.65;;;3.10;99.90;;;;;;5151366;23;20307;-89
2022/12/04 00:14:30;;;;;;;75.47;41.47;;;3.00;99.90;;;;;;5021198;28;20209;-82
2022/12/04 00:16:57;;;;;;;72.30;38.80;;;3.00;99.90;;;;;;5049125;28;20209;-81
2022/12/04 00:19:24;;;;;;;73.90;41.00;;;3.10;99.90;;;;;;5045992;28;20221;-84
2022/12/04 00:21:52;;;;;;;71.80;37.17;;;3.00;99.90;;;;;;5044948;28;20209;-81
2022/12/04 00:24:19;;;;;;;76.93;41.88;;;3.10;99.90;;;;;;5026625;28;20227;-83
2022/12/04 00:27:02;;;;;;;;;;;;;;;;;;;;;
2022/12/04 00:29:36;;;;;;;72.25;39.42;;;2.90;99.90;;;;;;5043963;28;20272;-87
2022/12/04 00:32:03;;;;;;;77.65;41.22;;;2.40;99.90;;;;;;5045529;28;20189;-85
2022/12/04 00:34:32;;;;;;;78.70;40.33;;;2.80;99.90;;;;;;5030829;28;20215;-91
2022/12/04 00:37:01;;;;;;;67.75;35.67;;;2.80;99.90;;;;;;5029826;28;20201;-83
2022/12/04 00:39:29;;;;;;;71.20;38.03;;;2.80;99.90;;;;;;5033943;28;20247;-84
2022/12/04 00:41:55;;;;;;;82.03;43.35;;;2.90;99.90;;;;;;5027762;28;20208;-80
2022/12/04 00:44:23;;;;;;;85.13;39.50;;;2.90;99.90;;;;;;5048020;28;20205;-89
2022/12/04 00:46:49;;;;;;;79.20;40.70;;;2.80;99.90;;;;;;5046328;28;20216;-82
2022/12/04 00:49:18;;;;;;;74.53;41.72;;;2.80;99.90;;;;;;5043785;28;20197;-85
2022/12/04 00:51:47;;;;;;;77.28;38.30;;;2.90;99.90;;;;;;5027455;28;20193;-84
2022/12/04 00:54:14;;;;;;;73.13;39.08;;;2.80;99.90;;;;;;5034798;28;20265;-82
2022/12/04 00:56:42;;;;;;;65.07;37.80;;;3.40;99.90;;;;;;5047242;28;20201;-85
2022/12/04 00:59:09;;;;;;;79.10;40.60;;;3.10;99.90;;;;;;5040619;28;20197;-84
2022/12/04 01:01:37;;;;;;;76.45;39.35;;;4.00;99.90;;;;;;5049623;28;20203;-83
2022/12/04 01:04:04;;;;;;;69.85;39.75;;;3.00;99.90;;;;;;5026553;28;20277;-82
2022/12/04 01:06:33;;;;;;;80.43;41.20;;;2.90;99.90;;;;;;5042097;28;20232;-82
2022/12/04 01:09:03;;;;;;;79.47;42.40;;;3.10;99.90;;;;;;5023447;28;20198;-81
2022/12/04 01:11:32;;;;;;;77.03;44.70;;;2.70;99.90;;;;;;5033106;28;20204;-85
2022/12/04 01:14:03;;;;;;;77.43;39.05;;;3.20;99.90;;;;;;5025651;28;20267;-90
2022/12/04 01:16:35;;;;;;;74.65;40.50;;;3.50;99.90;;;;;;5044631;28;20201;-83
2022/12/04 01:19:05;;;;;;;63.83;40.00;;;2.70;99.90;;;;;;5030904;28;20261;-84
2022/12/04 01:21:33;;;;;;;87.22;40.88;;;2.60;99.90;;;;;;5047306;28;20243;-83
2022/12/04 01:24:00;;;;;;;71.65;39.78;;;2.50;99.90;;;;;;5029828;28;20201;-82
2022/12/04 01:26:27;;;;;;;72.68;39.15;;;2.70;99.90;;;;;;5022827;28;20221;-84
2022/12/04 01:28:54;;;;;;;86.22;42.95;;;2.70;99.90;;;;;;5014200;28;20208;-84
2022/12/04 01:31:22;;;;;;;76.72;42.55;;;2.90;99.90;;;;;;5190313;23;20484;-83
2022/12/04 01:33:50;;;;;;;73.93;38.78;;;2.60;99.90;;;;;;5039309;28;20256;-81
2022/12/04 01:36:21;;;;;;;70.35;42.10;;;2.60;99.90;;;;;;5046265;28;20204;-86
2022/12/04 01:38:51;;;;;;;75.50;40.03;;;2.60;99.90;;;;;;5007897;28;20221;-82
2022/12/04 01:41:22;;;;;;;82.60;41.78;;;3.10;99.90;;;;;;5031539;28;20214;-84
2022/12/04 01:44:10;;;;;;;79.00;41.70;;;2.50;99.90;;;;;;5029243;28;20217;-86
2022/12/04 01:46:38;;;;;;;79.05;42.38;;;2.40;99.90;;;;;;5009954;28;20225;-82
2022/12/04 01:49:11;;;;;;;69.30;40.30;;;2.40;99.90;;;;;;5009799;28;20205;-84
2022/12/04 01:51:43;;;;;;;83.53;42.70;;;2.40;99.90;;;;;;5025631;28;20209;-85
2022/12/04 01:54:17;;;;;;;78.90;41.15;;;2.20;99.90;;;;;;5011809;28;20244;-85
2022/12/04 01:57:16;;;;;;;89.15;44.47;;;2.20;99.90;;;;;;5016936;28;20196;-82
2022/12/04 02:00:00;;;;;;;83.07;39.97;;;2.10;99.90;;;;;;5021359;28;20212;-84
2022/12/04 02:02:35;;;;;;;76.07;40.00;;;2.40;99.90;;;;;;5019927;28;20268;-82
2022/12/04 02:05:05;;;;;;;80.38;44.67;;;2.10;99.90;;;;;;5027644;28;20217;-85
2022/12/04 02:07:36;;;;;;;85.10;43.45;;;2.20;99.90;;;;;;5025559;28;20428;-84
2022/12/04 02:10:07;;;;;;;78.68;42.53;;;3.00;99.90;;;;;;5029517;28;20485;-84
2022/12/04 02:12:51;;;;;;;82.38;40.00;;;2.40;99.90;;;;;;5012932;28;20197;-85
2022/12/04 02:15:34;;;;;;;81.90;42.38;;;2.40;99.90;;;;;;5028238;28;20255;-87
2022/12/04 02:18:10;;;;;;;83.13;42.80;;;2.40;99.90;;;;;;4968782;28;20215;-83
2022/12/04 02:21:00;;;;;;;85.38;43.53;;;3.90;99.90;;;;;;4987769;28;20258;-83
2022/12/04 02:23:52;;;;;;;69.13;38.83;;;2.80;99.90;;;;;;4977040;28;20214;-83
2022/12/04 02:26:35;;;;;;;74.78;41.05;;;2.80;99.90;;;;;;4985768;28;20211;-84
2022/12/04 02:29:47;;;;;;;78.10;41.42;;;2.80;99.90;;;;;;4980003;28;20202;-83
2022/12/04 02:32:26;;;;;;;74.68;41.97;;;2.80;99.90;;;;;;4967906;28;20537;-82
2022/12/04 02:35:23;;;;;;;86.90;42.05;;;2.90;99.90;;;;;;4972186;28;20522;-87
2022/12/04 02:37:56;;;;;;;85.57;43.88;;;2.90;99.90;;;;;;4944743;28;20199;-83
2022/12/04 02:40:32;;;;;;;73.65;41.35;;;3.10;99.90;;;;;;4986983;28;20211;-83
2022/12/04 02:43:07;;;;;;;66.18;39.88;;;3.30;99.90;;;;;;4967512;29;20227;-84
2022/12/04 02:45:42;;;;;;;83.95;39.75;;;3.20;99.90;;;;;;4985057;28;20261;-84
2022/12/04 02:48:16;;;;;;;84.35;42.92;;;3.20;99.90;;;;;;4979363;28;20215;-81
2022/12/04 02:50:46;;;;;;;81.05;40.53;;;3.20;99.90;;;;;;4986337;28;20250;-84
2022/12/04 02:53:22;;;;;;;68.18;40.25;;;3.20;99.90;;;;;;4982756;28;20331;-84
2022/12/04 02:55:56;;;;;;;74.57;40.28;;;3.50;99.90;;;;;;5053139;23;20547;-83
2022/12/04 02:58:35;;;;;;;67.63;37.05;;;3.30;99.90;;;;;;5019827;28;20205;-82
2022/12/04 03:01:18;;;;;;;67.47;39.00;;;3.20;99.90;;;;;;5017025;28;20201;-82
2022/12/04 03:04:15;;;;;;;72.50;37.83;;;3.10;99.90;;;;;;5027597;28;20232;-88
2022/12/04 03:06:45;;;;;;;82.22;42.38;;;2.90;99.90;;;;;;5025906;28;20217;-85
2022/12/04 03:09:18;;;;;;;72.03;40.70;;;2.70;99.90;;;;;;5027484;28;20198;-89
2022/12/04 03:11:55;;;;;;;76.05;42.70;;;2.90;99.90;;;;;;5029641;28;20235;-85
2022/12/04 03:14:28;;;;;;;78.30;39.38;;;2.80;99.90;;;;;;5019819;28;20225;-84
2022/12/04 03:17:08;;;;;;;86.38;41.90;;;2.80;99.90;;;;;;5028381;28;20216;-84
2022/12/04 03:19:44;;;;;;;77.28;43.65;;;2.60;99.90;;;;;;5008288;28;20205;-81
2022/12/04 03:22:15;;;;;;;73.30;40.78;;;2.30;99.90;;;;;;5022344;28;20221;-84
2022/12/04 03:24:55;;;;;;;79.07;41.42;;;2.90;99.90;;;;;;5024266;28;20209;-82
2022/12/04 03:27:32;;;;;;;74.75;39.63;;;2.10;99.90;;;;;;5016390;28;20221;-81
2022/12/04 03:30:32;;;;;;;79.53;42.35;;;2.10;99.90;;;;;;5022622;28;20225;-85
2022/12/04 03:33:25;;;;;;;69.68;41.72;;;2.20;99.90;;;;;;5004653;28;20205;-85
2022/12/04 03:36:04;;;;;;;69.35;38.97;;;2.20;99.90;;;;;;5018809;28;20202;-83
2022/12/04 03:38:38;;;;;;;68.32;38.25;;;2.20;99.90;;;;;;5020747;28;20244;-86
2022/12/04 03:41:17;;;;;;;75.00;44.33;;;2.10;99.90;;;;;;5019012;28;20410;-92
2022/12/04 03:44:22;;;;;;;78.97;41.72;;;2.20;99.90;;;;;;5039498;28;20314;-83
2022/12/04 03:46:58;;;;;;;84.35;43.03;;;2.10;99.90;;;;;;5016323;28;20245;-83
2022/12/04 03:49:40;;;;;;;91.63;45.33;;;2.10;99.90;;;;;;5018350;28;20551;-83
2022/12/04 03:52:22;;;;;;;84.38;45.65;;;2.30;99.90;;;;;;5139414;23;20409;-82
2022/12/04 03:55:00;;;;;;;81.15;46.17;;;2.30;99.90;;;;;;5009425;28;20197;-82
2022/12/04 03:57:32;;;;;;;79.53;43.13;;;2.20;99.90;;;;;;5008880;28;20198;-88
2022/12/04 04:00:08;;;;;;;79.93;42.88;;;2.30;99.90;;;;;;5011885;28;20277;-83
2022/12/04 04:02:41;;;;;;;76.00;41.80;;;2.20;99.90;;;;;;5020016;28;20666;-85
2022/12/04 04:05:12;;;;;;;71.22;42.15;;;2.30;99.90;;;;;;5005330;28;20272;-84
2022/12/04 04:08:24;;;;;;;96.10;42.90;;;2.20;99.90;;;;;;5014866;28;20237;-84
2022/12/04 04:10:48;;;;;;;74.90;41.38;;;2.20;99.90;;;;;;5027593;28;20193;-82
2022/12/04 04:24:46;;;;;;;80.22;40.97;;;3.20;99.90;;;;;;5030280;28;20374;-86
2022/12/04 04:27:13;;;;;;;71.70;41.85;;;2.70;99.90;;;;;;5023917;28;20532;-83
2022/12/04 04:29:43;;;;;;;86.45;43.33;;;2.50;99.90;;;;;;5031246;28;20198;-84
2022/12/04 04:32:57;;;;;;;86.50;45.63;;;2.50;99.90;;;;;;5026702;28;20217;-88
2022/12/04 04:35:46;;;;;;;82.20;43.67;;;2.60;99.90;;;;;;5031322;28;20193;-84
2022/12/04 04:38:27;;;;;;;74.75;40.67;;;2.50;99.90;;;;;;5030042;28;20206;-82
2022/12/04 04:41:08;;;;;;;90.57;47.70;;;2.60;99.90;;;;;;5032644;28;20217;-83
2022/12/04 04:43:44;;;;;;;71.82;41.38;;;2.40;99.90;;;;;;5028919;28;20264;-83
2022/12/04 04:46:28;;;;;;;77.53;41.60;;;2.50;99.90;;;;;;5032197;28;20197;-83
2022/12/04 04:49:00;;;;;;;73.22;44.95;;;2.30;99.90;;;;;;5019930;28;20213;-82
2022/12/04 04:51:32;;;;;;;90.53;43.47;;;3.30;99.90;;;;;;5026641;28;20248;-85
2022/12/04 04:54:08;;;;;;;68.20;41.85;;;2.40;99.90;;;;;;5033677;28;20223;-84
2022/12/04 04:56:45;;;;;;;73.50;43.28;;;2.20;99.90;;;;;;5007951;28;20201;-83
2022/12/04 04:59:13;;;;;;;73.18;42.38;;;2.10;99.90;;;;;;5031515;28;20201;-80
2022/12/04 05:01:43;;;;;;;78.55;42.72;;;2.20;99.90;;;;;;5046412;28;20200;-82
2022/12/04 05:04:13;;;;;;;74.13;43.88;;;2.30;99.90;;;;;;5051581;28;20268;-83
2022/12/04 05:06:40;;;;;;;85.13;45.90;;;2.20;99.90;;;;;;5057490;28;20208;-81
2022/12/04 05:09:07;;;;;;;88.28;45.65;;;2.50;99.90;;;;;;5057821;28;20193;-81
2022/12/04 05:11:35;;;;;;;82.90;43.55;;;2.60;99.90;;;;;;5040806;28;20193;-82
2022/12/04 05:14:02;;;;;;;89.30;47.47;;;2.80;99.90;;;;;;5017652;28;20228;-81
2022/12/04 05:16:29;;;;;;;82.82;46.80;;;3.30;99.90;;;;;;5050906;28;20247;-83
2022/12/04 05:21:50;;;;;;;93.10;44.28;;;2.80;99.90;;;;;;5027073;28;20212;-82
2022/12/04 05:24:18;;;;;;;76.55;41.33;;;2.80;99.90;;;;;;5050730;28;20197;-82
2022/12/04 05:26:45;;;;;;;85.45;44.70;;;2.80;99.90;;;;;;5048474;28;20241;-81
2022/12/04 05:29:14;;;;;;;78.55;44.15;;;2.70;99.90;;;;;;5033100;28;20374;-82
2022/12/04 05:31:42;;;;;;;93.30;46.67;;;2.80;99.90;;;;;;5044184;28;20199;-86
2022/12/04 05:34:11;;;;;;;76.40;46.33;;;2.50;99.90;;;;;;5035811;28;20269;-88
2022/12/04 05:36:42;;;;;;;94.47;46.88;;;2.20;99.90;;;;;;5016921;28;20210;-85
2022/12/04 05:39:10;;;;;;;83.15;42.30;;;2.20;99.90;;;;;;5051253;28;20213;-84
2022/12/04 05:41:42;;;;;;;76.80;42.38;;;2.60;99.90;;;;;;5053464;28;20228;-85
2022/12/04 05:44:21;;;;;;;84.97;45.17;;;2.10;99.90;;;;;;5065904;28;20461;-87
2022/12/04 05:46:51;;;;;;;84.72;46.63;;;2.50;99.90;;;;;;5026481;28;20219;-82
2022/12/04 05:49:18;;;;;;;94.70;48.10;;;2.00;99.90;;;;;;5035662;28;20646;-82
2022/12/04 05:51:50;;;;;;;81.40;45.53;;;2.00;99.90;;;;;;5035338;28;20181;-84
2022/12/04 05:54:27;;;;;;;96.32;49.00;;;2.20;99.90;;;;;;5032477;28;20267;-83
2022/12/04 05:56:56;;;;;;;88.35;43.92;;;2.30;99.90;;;;;;5035794;28;20203;-82
2022/12/04 05:59:24;;;;;;;88.45;43.22;;;2.60;99.90;;;;;;5054989;28;20212;-82
2022/12/04 06:01:51;;;;;;;95.82;45.00;;;2.60;99.90;;;;;;5042548;28;20407;-83
2022/12/04 06:04:19;;;;;;;89.72;48.15;;;2.30;99.90;;;;;;5036430;28;20538;-82
2022/12/04 06:06:48;;;;;;;85.40;45.08;;;2.30;99.90;;;;;;5038907;28;20247;-83
2022/12/04 06:09:15;;;;;;;83.10;45.42;;;2.10;99.90;;;;;;5022389;28;20232;-81
2022/12/04 06:11:42;;;;;;;89.45;49.28;;;2.10;99.90;;;;;;5039278;28;20243;-81
2022/12/04 06:14:13;;;;;;;96.03;48.00;;;2.10;99.90;;;;;;5058683;28;20195;-81
2022/12/04 06:16:45;;;;;;;87.25;47.25;;;2.30;99.90;;;;;;5050858;28;20217;-81
2022/12/04 06:19:19;;;;;;;86.72;46.83;;;2.10;99.90;;;;;;5049706;28;20240;-84
2022/12/04 06:21:49;;;;;;;94.90;49.28;;;2.00;99.90;;;;;;5047621;28;20193;-81
2022/12/04 06:24:22;;;;;;;99.85;49.55;;;1.90;99.90;;;;;;5031824;28;20227;-81
2022/12/04 06:26:55;;;;;;;101.03;52.92;;;1.90;99.90;;;;;;5037772;28;20189;-82
2022/12/04 06:29:46;;;;;;;93.95;52.83;;;2.00;99.90;;;;;;5046664;28;20389;-82
2022/12/04 06:32:13;;;;;;;98.68;52.35;;;2.10;99.90;;;;;;5049195;28;20315;-83
2022/12/04 06:34:54;;;;;;;104.95;52.72;;;2.20;99.90;;;;;;5043743;28;20208;-83
2022/12/04 06:37:24;;;;;;;93.10;50.40;;;2.00;99.90;;;;;;5022093;28;20212;-83
2022/12/04 06:39:52;;;;;;;99.15;52.25;;;1.90;99.90;;;;;;5046118;28;20259;-88
2022/12/04 06:42:21;;;;;;;96.32;52.13;;;1.90;99.90;;;;;;5023245;28;20197;-82
2022/12/04 06:44:48;;;;;;;98.47;49.53;;;2.10;99.90;;;;;;5038204;28;20208;-86
2022/12/04 06:47:16;;;;;;;96.35;51.38;;;3.00;99.90;;;;;;5030363;28;20229;-83
2022/12/04 06:49:44;;;;;;;90.82;50.75;;;2.60;99.90;;;;;;5031722;28;20204;-82
2022/12/04 06:52:12;;;;;;;108.35;51.40;;;2.40;99.90;;;;;;5043590;28;20310;-82
2022/12/04 06:54:40;;;;;;;105.43;53.65;;;2.40;99.90;;;;;;5050993;28;20205;-83
2022/12/04 06:57:06;;;;;;;107.97;51.72;;;2.30;99.90;;;;;;5050674;23;20245;-83
2022/12/04 06:59:34;;;;;;;92.53;52.83;;;2.20;99.90;;;;;;5020840;28;20202;-85
2022/12/04 07:02:01;;;;;;;90.00;51.17;;;2.20;99.90;;;;;;5012812;28;20215;-86
2022/12/04 07:04:29;;;;;;;92.47;50.25;;;2.20;99.90;;;;;;5045197;23;20295;-85
2022/12/04 07:09:39;;;;;;;79.57;46.30;;;2.30;99.90;;;;;;5054127;28;20197;-88
2022/12/04 07:12:07;;;;;;;82.00;47.60;;;2.20;99.90;;;;;;5044094;28;20213;-88
2022/12/04 07:14:34;;;;;;;87.35;45.92;;;2.40;99.90;;;;;;5017164;28;20197;-83
2022/12/04 07:17:00;;;;;;;99.05;49.60;;;2.30;99.90;;;;;;5040374;28;20424;-83
2022/12/04 07:19:28;;;;;;;92.85;47.20;;;2.40;99.90;;;;;;5053913;28;20225;-82
2022/12/04 07:21:55;;;;;;;94.22;50.28;;;3.30;99.90;;;;;;5063725;23;20244;-87
2022/12/04 07:24:22;;;;;;;92.65;47.05;;;3.60;99.90;;;;;;5051601;28;20205;-82
2022/12/04 07:26:51;;;;;;;82.70;44.90;;;2.60;99.90;;;;;;5054095;28;20197;-87
2022/12/04 07:29:32;;;;;;;83.70;45.33;;;2.60;99.90;;;;;;5043936;28;20200;-86
2022/12/04 07:31:59;;;;;;;80.10;45.22;;;2.80;99.90;;;;;;5055961;28;20232;-88
2022/12/04 07:34:26;;;;;;;75.15;43.60;;;2.80;99.90;;;;;;5048293;28;20413;-85
2022/12/04 07:36:54;;;;;;;82.10;43.90;;;2.90;99.90;;;;;;5040077;28;20192;-87
2022/12/04 07:39:24;;;;;;;74.63;43.40;;;2.90;99.90;;;;;;5063147;28;20184;-90
2022/12/04 07:41:51;;;;;;;75.10;39.55;;;2.50;99.90;;;;;;5086040;23;20241;-82
2022/12/04 07:44:17;;;;;;;82.32;43.05;;;3.60;99.90;;;;;;5052291;28;20208;-82
2022/12/04 07:46:45;;;;;;;81.22;43.17;;;3.00;99.90;;;;;;5052975;28;20223;-83
2022/12/04 07:49:12;;;;;;;65.57;40.03;;;3.10;99.90;;;;;;5049427;28;20225;-82
2022/12/04 07:51:39;;;;;;;78.05;42.65;;;3.20;99.90;;;;;;5073090;28;20215;-81
2022/12/04 07:54:07;;;;;;;84.65;44.10;;;3.10;99.90;;;;;;5047076;28;20193;-86
2022/12/04 07:56:35;;;;;;;76.90;43.60;;;3.30;99.90;;;;;;5045226;28;20204;-83
2022/12/04 07:59:02;;;;;;;69.38;40.13;;;3.10;99.90;;;;;;5056324;28;20201;-82
2022/12/04 08:01:32;;;;;;;83.85;44.22;;;3.60;99.90;;;;;;5039312;28;20496;-84
2022/12/04 08:04:01;;;;;;;73.28;42.42;;;3.20;99.90;;;;;;5054583;28;20497;-86
2022/12/04 08:06:33;;;;;;;76.63;43.60;;;3.20;99.90;;;;;;5034180;28;20235;-83
2022/12/04 08:09:05;;;;;;;76.45;41.10;;;3.70;99.90;;;;;;5191785;23;20229;-88
2022/12/04 08:11:36;;;;;;;74.90;44.70;;;3.30;99.90;;;;;;5047074;28;20223;-82
2022/12/04 08:14:08;;;;;;;82.93;42.20;;;3.30;99.90;;;;;;5037754;28;20211;-81
2022/12/04 08:16:42;;;;;;;80.38;46.70;;;3.40;99.90;;;;;;5039193;28;20192;-90
2022/12/04 08:19:17;;;;;;;73.55;41.63;;;3.40;99.90;;;;;;5053881;28;20193;-81
2022/12/04 08:21:44;;;;;;;69.95;38.35;;;3.60;99.90;;;;;;5043339;28;20200;-82
2022/12/04 08:24:12;;;;;;;66.10;41.47;;;3.50;99.90;;;;;;5053338;28;20268;-83
2022/12/04 08:26:40;;;;;;;69.85;39.83;;;4.10;99.90;;;;;;5021343;28;20267;-82
2022/12/04 08:29:07;;;;;;;67.47;39.58;;;4.00;99.90;;;;;;5017922;28;20240;-83
2022/12/04 08:31:37;;;;;;;79.90;41.70;;;5.10;99.90;;;;;;5047593;28;20255;-83
2022/12/04 08:34:06;;;;;;;68.80;39.03;;;4.30;99.90;;;;;;5049203;28;20207;-81
2022/12/04 08:36:36;;;;;;;64.10;37.88;;;3.90;99.90;;;;;;5033277;28;20247;-88
2022/12/04 08:39:03;;;;;;;71.50;41.97;;;4.10;99.90;;;;;;5034303;28;20208;-84
2022/12/04 08:41:30;;;;;;;71.65;39.85;;;4.30;99.90;;;;;;5038926;28;20205;-81
2022/12/04 08:43:58;;;;;;;65.38;40.30;;;4.10;99.90;;;;;;5029105;28;20209;-83
2022/12/04 08:46:26;;;;;;;83.82;44.58;;;4.00;99.90;;;;;;5049630;28;20259;-86
2022/12/04 08:48:54;;;;;;;72.57;42.33;;;4.00;99.90;;;;;;5029640;28;20221;-81
2022/12/04 08:51:24;;;;;;;79.90;42.10;;;4.10;99.90;;;;;;5030497;28;20382;-82
2022/12/04 08:53:58;;;;;;;69.30;42.08;;;4.30;99.90;;;;;;5030747;28;20208;-80
2022/12/04 08:56:27;;;;;;;74.88;42.17;;;4.50;99.90;;;;;;5038708;28;20197;-80
2022/12/04 08:58:55;;;;;;;70.82;39.10;;;4.70;99.90;;;;;;5027345;28;20276;-81
2022/12/04 09:01:24;;;;;;;60.38;36.83;;;4.80;99.90;;;;;;5029996;28;20272;-80
2022/12/04 09:03:52;;;;;;;64.30;38.08;;;4.90;99.90;;;;;;5048172;28;20212;-81
2022/12/04 09:06:20;;;;;;;63.60;39.85;;;5.00;99.90;;;;;;5052004;28;20211;-82
2022/12/04 09:09:01;;;;;;;63.78;39.78;;;5.00;99.90;;;;;;5054181;28;20224;-84
2022/12/04 09:11:31;;;;;;;69.78;41.63;;;5.10;99.90;;;;;;5044907;28;20215;-80
2022/12/04 09:14:01;;;;;;;59.17;37.05;;;5.10;99.90;;;;;;5050770;28;20307;-83
2022/12/04 09:16:30;;;;;;;61.17;38.03;;;5.30;99.90;;;;;;5051479;28;20192;-81
2022/12/04 09:18:59;;;;;;;62.22;38.95;;;5.50;99.90;;;;;;5049943;28;20277;-82
2022/12/04 09:21:27;;;;;;;59.17;37.42;;;5.60;99.90;;;;;;5047926;28;20255;-81
2022/12/04 09:23:54;;;;;;;53.45;38.10;;;5.90;99.90;;;;;;5046751;28;20228;-82
2022/12/04 09:26:24;;;;;;;57.83;35.35;;;6.00;99.90;;;;;;5052966;28;20257;-84
2022/12/04 09:28:52;;;;;;;54.22;34.65;;;5.90;99.90;;;;;;5054431;28;20276;-80
2022/12/04 09:31:23;;;;;;;51.25;30.25;;;6.00;99.90;;;;;;5049600;28;20247;-86
2022/12/04 09:33:54;;;;;;;55.97;33.65;;;5.80;99.90;;;;;;5051067;28;20204;-82
2022/12/04 09:36:24;;;;;;;58.20;34.15;;;5.50;99.90;;;;;;5056140;28;20216;-85
2022/12/04 09:38:58;;;;;;;55.20;34.28;;;6.10;99.90;;;;;;5037854;28;20212;-81
2022/12/04 09:41:35;;;;;;;49.60;31.05;;;6.20;99.90;;;;;;5060823;28;20200;-86
2022/12/04 09:44:23;;;;;;;46.90;31.30;;;6.20;99.90;;;;;;5055568;28;20427;-83
2022/12/04 09:47:04;;;;;;;51.88;33.10;;;6.00;99.90;;;;;;5050759;28;20204;-83
2022/12/04 09:49:53;;;;;;;46.83;31.15;;;6.00;99.90;;;;;;5059322;28;20223;-86
2022/12/04 09:52:57;;;;;;;47.28;29.98;;;5.80;99.90;;;;;;5054439;28;20189;-90
2022/12/04 09:55:34;;;;;;;47.10;31.85;;;6.00;99.90;;;;;;5047795;28;20264;-83
2022/12/04 09:58:06;;;;;;;50.97;32.47;;;5.90;99.90;;;;;;5019739;28;20212;-82
2022/12/04 10:00:41;;;;;;;45.75;31.52;;;5.90;99.90;;;;;;5062131;28;20193;-83
2022/12/04 10:03:18;;;;;;;55.60;35.80;;;6.10;99.90;;;;;;5015120;28;20201;-82
2022/12/04 10:06:05;;;;;;;49.45;30.95;;;5.90;99.90;;;;;;5051599;28;20188;-86
2022/12/04 10:08:40;;;;;;;52.97;31.70;;;6.00;99.90;;;;;;5038626;28;20236;-85
2022/12/04 10:11:15;;;;;;;51.97;32.78;;;6.00;99.90;;;;;;5053224;28;20706;-82
2022/12/04 10:13:51;;;;;;;57.75;32.70;;;6.00;99.90;;;;;;5051595;28;20212;-82
2022/12/04 10:16:44;;;;;;;51.78;32.30;;;6.10;99.90;;;;;;5034521;28;20227;-84
2022/12/04 10:19:33;;;;;;;49.75;30.52;;;6.00;99.90;;;;;;5046966;28;20271;-85
2022/12/04 10:22:14;;;;;;;52.08;29.58;;;6.50;99.90;;;;;;5050339;28;20213;-82
2022/12/04 10:24:49;;;;;;;53.45;32.67;;;5.80;99.90;;;;;;5035467;28;20212;-81
2022/12/04 10:27:26;;;;;;;60.92;36.92;;;5.80;99.90;;;;;;5030528;28;20201;-84
2022/12/04 10:30:18;;;;;;;51.75;33.00;;;6.00;99.90;;;;;;5047675;28;20465;-83
2022/12/04 10:32:51;;;;;;;53.13;33.13;;;5.80;99.90;;;;;;5012944;28;20205;-82
2022/12/04 10:35:21;;;;;;;43.33;31.08;;;6.00;99.90;;;;;;5029299;28;20219;-81
2022/12/04 10:37:55;;;;;;;47.08;31.98;;;6.10;99.90;;;;;;5031169;28;20278;-83
2022/12/04 10:40:36;;;;;;;60.85;35.10;;;6.60;99.90;;;;;;5035008;28;20197;-86
2022/12/04 10:43:10;;;;;;;54.08;32.03;;;6.10;99.90;;;;;;5030462;28;20232;-82
2022/12/04 10:45:40;;;;;;;45.80;32.33;;;6.10;99.90;;;;;;5020159;28;20213;-84
2022/12/04 10:48:37;;;;;;;56.90;35.05;;;6.10;99.90;;;;;;5048581;28;20225;-82
2022/12/04 10:51:20;;;;;;;65.55;37.13;;;6.60;99.90;;;;;;5129745;23;20236;-85
2022/12/04 10:53:49;;;;;;;64.82;37.47;;;6.20;99.90;;;;;;5053331;28;20196;-82
2022/12/04 10:56:25;;;;;;;104.40;50.33;;;6.40;99.90;;;;;;5045494;28;20190;-82
2022/12/04 10:59:02;;;;;;;102.00;50.70;;;6.50;99.90;;;;;;5014120;28;20217;-82
2022/12/04 11:01:36;;;;;;;76.07;43.60;;;6.50;99.90;;;;;;5041233;28;20188;-85
2022/12/04 11:07:50;;;;;;;44.42;30.77;;;6.60;99.90;;;;;;5119634;23;20239;-86
2022/12/04 11:10:41;;;;;;;93.28;46.85;;;6.60;99.90;;;;;;5026465;28;20193;-84
2022/12/04 11:13:22;;;;;;;55.10;34.08;;;6.60;99.90;;;;;;5050429;28;20192;-82
2022/12/04 11:15:52;;;;;;;51.22;31.35;;;6.70;99.90;;;;;;5051421;28;20204;-89
2022/12/04 11:18:32;;;;;;;44.97;29.73;;;6.70;99.90;;;;;;5150341;23;20229;-82
2022/12/04 11:21:27;;;;;;;68.00;39.72;;;6.70;99.90;;;;;;5029485;28;20220;-81
2022/12/04 11:24:01;;;;;;;52.63;33.42;;;6.80;99.90;;;;;;5046925;28;20211;-83
2022/12/04 11:26:41;;;;;;;59.22;36.25;;;6.70;99.90;;;;;;5028545;28;20215;-81
2022/12/04 11:29:22;;;;;;;46.50;28.40;;;7.10;99.90;;;;;;5048042;28;20580;-84
2022/12/04 11:32:22;;;;;;;44.90;28.42;;;7.00;99.90;;;;;;5049797;28;20189;-83
2022/12/04 11:35:19;;;;;;;44.17;30.13;;;6.90;99.90;;;;;;5064714;23;20236;-85
2022/12/04 11:38:44;;;;;;;52.15;30.85;;;6.70;99.90;;;;;;5035361;28;20200;-81
2022/12/04 11:41:25;;;;;;;52.55;33.05;;;6.60;99.90;;;;;;5025833;28;20228;-82
2022/12/04 11:43:54;;;;;;;53.65;33.40;;;6.50;99.90;;;;;;5034243;28;20199;-86
2022/12/04 11:46:30;;;;;;;55.63;35.00;;;6.70;99.90;;;;;;5098286;23;20259;-82
2022/12/04 11:49:02;;;;;;;53.00;31.70;;;6.90;99.90;;;;;;5021715;28;20239;-86
2022/12/04 11:52:08;;;;;;;56.47;34.58;;;6.60;99.90;;;;;;5140219;23;20566;-82
2022/12/04 11:54:42;;;;;;;44.90;32.40;;;6.50;99.90;;;;;;5365685;23;20243;-83
2022/12/04 11:59:59;;;;;;;48.83;33.38;;;6.60;99.90;;;;;;5048185;28;20223;-81
2022/12/04 12:03:04;;;;;;;49.20;35.92;;;6.60;99.90;;;;;;5046379;28;20204;-83
2022/12/04 12:06:19;;;;;;;47.40;33.85;;;6.70;99.90;;;;;;5042800;28;20212;-82
2022/12/04 12:09:05;;;;;;;53.63;35.50;;;6.90;99.90;;;;;;4971603;28;20482;-82
2022/12/04 12:12:24;;;;;;;41.90;29.88;;;7.00;99.90;;;;;;5045151;28;20197;-86
2022/12/04 12:15:13;;;;;;;49.40;30.38;;;7.00;99.90;;;;;;5028245;28;20228;-90
2022/12/04 12:18:13;;;;;;;47.65;30.20;;;7.00;99.90;;;;;;5036356;28;20212;-82
2022/12/04 12:20:52;;;;;;;42.83;29.33;;;7.10;99.90;;;;;;5022636;28;20265;-81
2022/12/04 12:23:33;;;;;;;42.97;29.73;;;7.30;99.90;;;;;;5032557;28;20236;-83
2022/12/04 12:26:13;;;;;;;50.17;30.38;;;7.40;99.90;;;;;;5040390;28;20246;-82
2022/12/04 12:29:13;;;;;;;50.38;29.00;;;7.50;99.90;;;;;;5032636;28;20238;-81
2022/12/04 12:31:58;;;;;;;43.50;29.13;;;7.40;99.90;;;;;;5043521;28;20389;-83
2022/12/04 12:34:53;;;;;;;48.75;31.13;;;7.40;99.90;;;;;;5044462;28;20192;-80
2022/12/04 12:37:29;;;;;;;45.30;30.27;;;7.50;99.90;;;;;;5034965;28;20197;-87
2022/12/04 12:40:13;;;;;;;44.33;29.30;;;7.30;99.90;;;;;;5047468;28;20226;-85
2022/12/04 12:42:52;;;;;;;43.92;27.83;;;7.00;99.90;;;;;;5039894;28;20227;-82
2022/12/04 12:45:47;;;;;;;45.45;30.17;;;7.40;99.90;;;;;;5035096;28;20543;-83
2022/12/04 12:48:39;;;;;;;38.60;27.27;;;6.60;99.90;;;;;;5051291;28;20204;-85
2022/12/04 12:51:40;;;;;;;46.70;26.27;;;7.20;99.90;;;;;;5041788;28;20196;-85
2022/12/04 12:54:26;;;;;;;37.35;24.67;;;7.10;99.90;;;;;;5033227;28;20504;-80
2022/12/04 12:57:02;;;;;;;41.13;27.60;;;7.20;99.90;;;;;;5039268;28;20453;-80
2022/12/04 12:59:33;;;;;;;39.63;27.92;;;7.20;99.90;;;;;;5046563;28;20208;-81
2022/12/04 13:02:19;;;;;;;40.53;26.60;;;6.90;99.90;;;;;;5046690;28;20205;-87
2022/12/04 13:07:46;;;;;;;43.63;27.50;;;6.90;99.90;;;;;;5160438;23;20248;-85
2022/12/04 13:10:40;;;;;;;42.33;29.45;;;6.70;99.90;;;;;;5164194;23;20201;-90
2022/12/04 13:13:24;;;;;;;43.83;29.13;;;6.60;99.90;;;;;;5107538;23;20296;-85
2022/12/04 13:16:17;;;;;;;45.17;27.45;;;6.70;99.90;;;;;;4977543;28;20238;-90
2022/12/04 13:19:07;;;;;;;43.15;27.00;;;6.60;99.90;;;;;;4977752;28;20203;-89
2022/12/04 13:21:50;;;;;;;43.92;27.40;;;6.60;99.90;;;;;;5092087;23;20597;-89
2022/12/04 13:24:36;;;;;;;48.20;28.80;;;6.90;99.90;;;;;;4981887;28;20266;-89
2022/12/04 13:27:21;;;;;;;46.35;30.55;;;6.50;99.90;;;;;;4986742;28;20218;-83
2022/12/04 13:30:00;;;;;;;48.50;28.40;;;6.50;99.90;;;;;;4982996;28;20254;-84
2022/12/04 13:32:45;;;;;;;68.75;37.80;;;6.40;99.90;;;;;;4971604;28;20195;-87
2022/12/04 13:35:46;;;;;;;46.47;30.10;;;6.40;99.90;;;;;;4969738;28;20210;-87
2022/12/04 13:38:24;;;;;;;51.25;33.25;;;6.40;99.90;;;;;;4983064;28;20203;-86
2022/12/04 13:41:01;;;;;;;46.42;30.77;;;6.30;99.90;;;;;;4969973;28;20207;-84
2022/12/04 13:43:40;;;;;;;59.53;35.03;;;6.30;99.90;;;;;;4986957;28;20206;-82
2022/12/04 13:46:35;;;;;;;50.90;31.60;;;6.50;99.90;;;;;;4990134;28;20215;-87
2022/12/04 13:49:17;;;;;;;53.10;30.85;;;6.20;99.90;;;;;;4994319;28;20215;-83